createdAt,value
2023-02-04T00:00:13.779Z,7.62
2023-02-04T00:02:41.533Z,7.53
2023-02-04T00:05:10.122Z,7.56
2023-02-04T00:07:37.882Z,7.60
2023-02-04T00:10:07.018Z,7.64
2023-02-04T00:12:36.128Z,7.60
2023-02-04T00:15:03.923Z,7.55
2023-02-04T00:17:31.605Z,7.58
2023-02-04T00:19:59.583Z,7.58
2023-02-04T00:22:29.487Z,7.48
2023-02-04T00:24:57.644Z,7.55
2023-02-04T00:27:25.611Z,7.51
2023-02-04T00:29:54.653Z,7.54
2023-02-04T00:32:22.339Z,7.54
2023-02-04T00:34:50.674Z,7.48
2023-02-04T00:37:18.888Z,7.43
2023-02-04T00:39:47.143Z,7.37
2023-02-04T00:42:15.631Z,7.52
2023-02-04T00:44:43.582Z,7.45
2023-02-04T00:47:13.758Z,7.46
2023-02-04T00:49:42.242Z,7.47
2023-02-04T00:54:40.383Z,7.35
2023-02-04T00:57:09.564Z,7.42
2023-02-04T00:59:38.433Z,7.40
2023-02-04T01:02:07.366Z,7.48
2023-02-04T01:07:06.146Z,7.43
2023-02-04T01:09:39.554Z,7.43
2023-02-04T01:12:08.073Z,7.36
2023-02-04T01:14:36.415Z,7.37
2023-02-04T01:17:04.177Z,7.33
2023-02-04T01:19:31.721Z,7.25
2023-02-04T01:21:59.256Z,7.34
2023-02-04T01:24:26.833Z,7.33
2023-02-04T01:26:55.906Z,7.26
2023-02-04T01:29:23.562Z,7.25
2023-02-04T01:31:51.205Z,7.33
2023-02-04T01:34:18.781Z,7.24
2023-02-04T01:36:46.323Z,7.16
2023-02-04T01:39:13.990Z,7.40
2023-02-04T01:41:41.870Z,7.30
2023-02-04T01:44:12.014Z,7.24
2023-02-04T01:46:39.853Z,7.32
2023-02-04T01:49:07.698Z,7.35
2023-02-04T01:51:35.638Z,7.26
2023-02-04T01:54:03.443Z,7.33
2023-02-04T01:56:31.689Z,7.21
2023-02-04T01:58:59.778Z,7.15
2023-02-04T02:01:37.991Z,7.17
2023-02-04T02:04:06.454Z,7.07
2023-02-04T02:06:34.155Z,7.05
2023-02-04T02:09:02.236Z,6.96
2023-02-04T02:11:30.095Z,7.00
2023-02-04T02:13:57.782Z,6.93
2023-02-04T02:16:25.567Z,6.97
2023-02-04T02:18:54.669Z,6.98
2023-02-04T02:21:33.332Z,6.94
2023-02-04T02:24:25.127Z,6.80
2023-02-04T02:26:53.431Z,6.78
2023-02-04T02:29:21.076Z,6.76
2023-02-04T02:31:48.737Z,6.65
2023-02-04T02:34:16.358Z,6.51
2023-02-04T02:36:44.069Z,6.66
2023-02-04T02:39:13.052Z,6.57
2023-02-04T02:41:40.665Z,6.56
2023-02-04T02:44:08.465Z,6.52
2023-02-04T02:46:36.099Z,6.60
2023-02-04T02:49:03.722Z,6.48
2023-02-04T02:51:31.896Z,6.46
2023-02-04T02:53:59.656Z,6.50
2023-02-04T02:56:28.620Z,6.39
2023-02-04T02:58:56.215Z,6.47
2023-02-04T03:01:23.866Z,6.36
2023-02-04T03:03:52.868Z,6.46
2023-02-04T03:06:22.026Z,6.37
2023-02-04T03:08:52.635Z,6.39
2023-02-04T03:11:20.263Z,6.37
2023-02-04T03:13:49.427Z,6.28
2023-02-04T03:16:19.953Z,6.29
2023-02-04T03:18:47.984Z,6.30
2023-02-04T03:21:15.645Z,6.33
2023-02-04T03:23:43.256Z,6.28
2023-02-04T03:26:10.874Z,6.38
2023-02-04T03:28:40.671Z,6.31
2023-02-04T03:31:09.735Z,6.20
2023-02-04T03:33:37.472Z,6.24
2023-02-04T03:36:05.562Z,6.22
2023-02-04T03:38:34.370Z,6.15
2023-02-04T03:41:02.196Z,6.23
2023-02-04T03:43:30.469Z,6.20
2023-02-04T03:45:59.155Z,6.19
2023-02-04T03:48:28.103Z,6.13
2023-02-04T03:50:55.681Z,6.07
2023-02-04T03:53:23.336Z,6.07
2023-02-04T03:55:51.029Z,6.07
2023-02-04T03:58:18.604Z,6.13
2023-02-04T04:00:46.270Z,6.04
2023-02-04T04:03:13.811Z,6.05
2023-02-04T04:05:42.817Z,6.00
2023-02-04T04:08:10.376Z,6.06
2023-02-04T04:10:38.037Z,6.06
2023-02-04T04:13:05.627Z,6.05
2023-02-04T04:15:33.297Z,6.08
2023-02-04T04:18:00.938Z,6.15
2023-02-04T04:20:29.093Z,6.06
2023-02-04T04:22:58.172Z,6.10
2023-02-04T04:25:25.890Z,6.07
2023-02-04T04:27:53.604Z,6.09
2023-02-04T04:30:21.294Z,6.17
2023-02-04T04:32:48.890Z,6.17
2023-02-04T04:35:16.605Z,6.12
2023-02-04T04:37:44.168Z,6.19
2023-02-04T04:40:13.999Z,6.11
2023-02-04T04:42:41.642Z,6.10
2023-02-04T04:45:10.380Z,6.08
2023-02-04T04:47:38.056Z,6.05
2023-02-04T04:50:06.179Z,6.11
2023-02-04T04:52:33.764Z,6.15
2023-02-04T04:55:01.301Z,6.15
2023-02-04T04:57:30.371Z,6.14
2023-02-04T04:59:57.910Z,6.17
2023-02-04T05:02:25.455Z,6.13
2023-02-04T05:04:53.485Z,6.10
2023-02-04T05:07:21.054Z,6.06
2023-02-04T05:09:48.589Z,6.09
2023-02-04T05:12:16.326Z,6.08
2023-02-04T05:14:45.304Z,6.10
2023-02-04T05:17:12.892Z,5.99
2023-02-04T05:19:40.478Z,6.07
2023-02-04T05:22:08.120Z,6.06
2023-02-04T05:24:35.678Z,6.02
2023-02-04T05:27:03.235Z,6.04
2023-02-04T05:29:31.183Z,6.01
2023-02-04T05:32:00.204Z,6.03
2023-02-04T05:34:27.918Z,5.98
2023-02-04T05:36:55.481Z,5.96
2023-02-04T05:39:23.041Z,5.89
2023-02-04T05:41:50.595Z,5.94
2023-02-04T05:44:18.196Z,5.97
2023-02-04T05:46:45.815Z,5.91
2023-02-04T05:49:14.802Z,5.86
2023-02-04T05:51:42.376Z,5.95
2023-02-04T05:54:09.957Z,5.89
2023-02-04T05:56:37.592Z,5.87
2023-02-04T05:59:05.175Z,5.84
2023-02-04T06:01:32.754Z,5.88
2023-02-04T06:04:00.467Z,5.88
2023-02-04T06:06:29.569Z,5.84
2023-02-04T06:08:57.225Z,5.86
2023-02-04T06:11:24.778Z,5.84
2023-02-04T06:13:52.352Z,5.87
2023-02-04T06:16:20.061Z,5.87
2023-02-04T06:18:47.771Z,5.95
2023-02-04T06:21:15.349Z,5.95
2023-02-04T06:23:44.307Z,5.98
2023-02-04T06:26:12.243Z,5.86
2023-02-04T06:28:39.882Z,5.90
2023-02-04T06:31:09.093Z,5.90
2023-02-04T06:33:37.307Z,5.89
2023-02-04T06:36:05.415Z,5.81
2023-02-04T06:38:32.977Z,5.83
2023-02-04T06:41:01.922Z,5.83
2023-02-04T06:43:29.513Z,5.74
2023-02-04T06:45:57.166Z,5.84
2023-02-04T06:48:24.829Z,5.82
2023-02-04T06:50:52.438Z,5.80
2023-02-04T06:53:20.009Z,5.83
2023-02-04T06:55:47.656Z,5.82
2023-02-04T06:58:16.590Z,5.78
2023-02-04T07:00:44.321Z,5.75
2023-02-04T07:03:11.939Z,5.74
2023-02-04T07:05:40.041Z,5.74
2023-02-04T07:08:07.924Z,5.72
2023-02-04T07:10:35.872Z,5.78
2023-02-04T07:13:03.898Z,5.72
2023-02-04T07:15:33.196Z,5.73
2023-02-04T07:18:01.165Z,5.75
2023-02-04T07:20:29.440Z,5.79
2023-02-04T07:22:57.156Z,5.72
2023-02-04T07:25:24.853Z,5.75
2023-02-04T07:27:52.595Z,5.74
2023-02-04T07:30:20.637Z,5.64
2023-02-04T07:32:50.025Z,5.66
2023-02-04T07:35:18.078Z,5.65
2023-02-04T07:37:45.700Z,5.66
2023-02-04T07:40:14.031Z,5.65
2023-02-04T07:42:41.617Z,5.68
2023-02-04T07:45:09.949Z,5.70
2023-02-04T07:47:38.638Z,5.76
2023-02-04T07:50:08.261Z,5.74
2023-02-04T07:52:36.533Z,5.73
2023-02-04T07:55:04.170Z,5.75
2023-02-04T07:57:32.186Z,5.73
2023-02-04T08:00:00.238Z,5.77
2023-02-04T08:02:28.340Z,5.80
2023-02-04T08:04:55.989Z,5.74
2023-02-04T08:07:25.020Z,5.80
2023-02-04T08:09:54.954Z,5.81
2023-02-04T08:12:22.700Z,5.83
2023-02-04T08:14:50.488Z,5.87
2023-02-04T08:17:18.110Z,5.88
2023-02-04T08:19:46.205Z,5.89
2023-02-04T08:22:13.936Z,5.89
2023-02-04T08:24:42.961Z,5.89
2023-02-04T08:27:10.860Z,5.99
2023-02-04T08:29:38.640Z,5.99
2023-02-04T08:32:09.988Z,5.99
2023-02-04T08:34:37.887Z,6.07
2023-02-04T08:37:06.130Z,6.01
2023-02-04T08:39:33.859Z,6.12
2023-02-04T08:42:02.890Z,6.15
2023-02-04T08:44:30.585Z,6.12
2023-02-04T08:46:58.796Z,6.17
2023-02-04T08:49:26.389Z,6.19
2023-02-04T08:51:54.133Z,6.27
2023-02-04T08:54:22.233Z,6.28
2023-02-04T08:56:50.046Z,6.37
2023-02-04T08:59:19.074Z,6.41
2023-02-04T09:01:51.004Z,6.39
2023-02-04T09:04:18.907Z,6.45
2023-02-04T09:06:46.649Z,6.45
2023-02-04T09:09:14.510Z,6.39
2023-02-04T09:11:42.699Z,6.51
2023-02-04T09:14:10.407Z,6.68
2023-02-04T09:16:39.508Z,6.65
2023-02-04T09:19:09.330Z,6.59
2023-02-04T09:21:36.945Z,6.68
2023-02-04T09:24:04.865Z,6.77
2023-02-04T09:26:32.572Z,6.95
2023-02-04T09:29:00.327Z,6.99
2023-02-04T09:31:28.086Z,6.96
2023-02-04T09:33:57.244Z,7.07
2023-02-04T09:36:28.425Z,6.82
2023-02-04T09:38:56.564Z,7.13
2023-02-04T09:41:24.221Z,7.03
2023-02-04T09:43:52.021Z,7.29
2023-02-04T09:46:22.880Z,7.17
2023-02-04T09:48:51.257Z,7.21
2023-02-04T09:51:22.731Z,7.46
2023-02-04T09:53:50.763Z,7.62
2023-02-04T09:56:19.343Z,7.82
2023-02-04T09:58:47.638Z,7.88
2023-02-04T10:01:17.756Z,8.17
2023-02-04T10:03:47.508Z,8.31
2023-02-04T10:06:16.026Z,8.36
2023-02-04T10:08:45.691Z,8.61
2023-02-04T10:11:14.608Z,8.37
2023-02-04T10:13:45.369Z,8.54
2023-02-04T10:16:16.275Z,8.52
2023-02-04T10:18:44.524Z,8.53
2023-02-04T10:21:20.300Z,8.47
2023-02-04T10:23:51.389Z,8.47
2023-02-04T10:26:19.333Z,8.42
2023-02-04T10:28:47.105Z,8.40
2023-02-04T10:31:38.414Z,8.41
2023-02-04T10:34:08.516Z,8.41
2023-02-04T10:36:36.236Z,8.45
2023-02-04T10:39:06.666Z,8.55
2023-02-04T10:41:38.574Z,8.55
2023-02-04T10:44:08.049Z,8.52
2023-02-04T10:46:36.749Z,8.38
2023-02-04T10:49:06.386Z,8.31
2023-02-04T10:51:34.511Z,8.32
2023-02-04T10:54:19.631Z,8.05
2023-02-04T10:56:48.538Z,8.16
2023-02-04T10:59:23.558Z,8.23
2023-02-04T11:01:51.367Z,8.02
2023-02-04T11:04:18.971Z,8.04
2023-02-04T11:06:46.655Z,7.99
2023-02-04T11:09:15.717Z,8.05
2023-02-04T11:11:48.888Z,7.95
2023-02-04T11:14:25.301Z,7.95
2023-02-04T11:16:54.688Z,8.09
2023-02-04T11:19:34.021Z,8.18
2023-02-04T11:22:20.253Z,8.24
2023-02-04T11:24:47.779Z,8.52
2023-02-04T11:27:26.725Z,8.78
2023-02-04T11:30:06.308Z,9.12
2023-02-04T11:32:36.244Z,9.21
2023-02-04T11:35:17.932Z,9.28
2023-02-04T11:37:46.184Z,9.07
2023-02-04T11:40:24.004Z,9.05
2023-02-04T11:42:58.233Z,8.71
2023-02-04T11:45:29.634Z,8.84
2023-02-04T11:47:59.035Z,8.72
2023-02-04T11:50:30.428Z,8.91
2023-02-04T11:52:58.853Z,8.94
2023-02-04T11:55:27.015Z,8.80
2023-02-04T11:57:56.901Z,9.26
2023-02-04T12:00:26.312Z,9.49
2023-02-04T12:02:59.100Z,9.21
2023-02-04T12:05:39.407Z,9.07
2023-02-04T12:08:14.626Z,9.01
2023-02-04T12:10:49.635Z,9.06
2023-02-04T12:13:20.833Z,9.29
2023-02-04T12:15:55.820Z,9.07
2023-02-04T12:18:23.493Z,9.28
2023-02-04T12:20:51.151Z,8.92
2023-02-04T12:23:18.828Z,8.46
2023-02-04T12:25:46.700Z,8.49
2023-02-04T12:28:14.439Z,8.29
2023-02-04T12:30:43.483Z,8.03
2023-02-04T12:33:11.674Z,8.27
2023-02-04T12:35:40.094Z,7.74
2023-02-04T12:38:09.128Z,8.11
2023-02-04T12:40:36.973Z,7.92
2023-02-04T12:43:05.010Z,7.54
2023-02-04T12:45:33.736Z,7.74
2023-02-04T12:48:03.058Z,7.84
2023-02-04T12:50:30.706Z,7.94
2023-02-04T12:52:59.560Z,7.98
2023-02-04T12:55:28.848Z,7.98
2023-02-04T12:57:57.112Z,8.07
2023-02-04T13:00:27.320Z,8.16
2023-02-04T13:02:55.870Z,8.02
2023-02-04T13:05:24.872Z,8.27
2023-02-04T13:07:52.496Z,8.36
2023-02-04T13:10:21.818Z,8.52
2023-02-04T13:12:49.653Z,8.63
2023-02-04T13:15:17.849Z,8.60
2023-02-04T13:17:45.477Z,8.79
2023-02-04T13:20:14.133Z,9.07
2023-02-04T13:22:43.243Z,9.03
2023-02-04T13:25:11.572Z,9.01
2023-02-04T13:27:39.384Z,8.93
2023-02-04T13:30:08.930Z,8.70
2023-02-04T13:32:36.572Z,8.76
2023-02-04T13:35:04.461Z,8.85
2023-02-04T13:37:32.103Z,8.90
2023-02-04T13:40:01.089Z,8.77
2023-02-04T13:42:29.056Z,8.86
2023-02-04T13:44:56.767Z,8.45
2023-02-04T13:47:24.566Z,8.31
2023-02-04T13:49:52.347Z,8.34
2023-02-04T13:52:20.202Z,8.52
2023-02-04T13:54:47.836Z,8.11
2023-02-04T13:57:17.502Z,8.08
2023-02-04T13:59:45.086Z,8.56
2023-02-04T14:02:12.955Z,8.31
2023-02-04T14:04:43.776Z,8.37
2023-02-04T14:07:11.470Z,8.27
2023-02-04T14:09:39.115Z,8.37
2023-02-04T14:12:07.308Z,8.50
2023-02-04T14:14:36.809Z,8.35
2023-02-04T14:17:04.475Z,8.21
2023-02-04T14:19:32.345Z,8.38
2023-02-04T14:21:59.949Z,8.43
2023-02-04T14:24:27.594Z,8.44
2023-02-04T14:26:56.122Z,8.33
2023-02-04T14:29:23.730Z,8.23
2023-02-04T14:31:52.758Z,8.50
2023-02-04T14:34:20.471Z,8.53
2023-02-04T14:36:48.048Z,8.43
2023-02-04T14:39:15.623Z,8.44
2023-02-04T14:41:43.201Z,8.47
2023-02-04T14:44:10.854Z,8.41
2023-02-04T14:46:41.072Z,8.26
2023-02-04T14:49:10.255Z,8.19
2023-02-04T14:51:38.495Z,8.32
2023-02-04T14:54:06.414Z,8.04
2023-02-04T14:56:34.162Z,8.18
2023-02-04T14:59:01.746Z,8.24
2023-02-04T15:01:30.932Z,7.86
2023-02-04T15:03:59.276Z,7.99
2023-02-04T15:06:28.451Z,8.15
2023-02-04T15:08:57.185Z,7.87
2023-02-04T15:11:24.859Z,7.98
2023-02-04T15:13:52.475Z,8.00
2023-02-04T15:16:20.328Z,7.77
2023-02-04T15:18:48.103Z,7.85
2023-02-04T15:21:17.219Z,7.67
2023-02-04T15:23:47.304Z,7.78
2023-02-04T15:26:15.103Z,7.58
2023-02-04T15:28:42.822Z,7.69
2023-02-04T15:31:12.244Z,7.66
2023-02-04T15:33:40.013Z,7.71
2023-02-04T15:36:08.240Z,7.53
2023-02-04T15:38:36.083Z,7.55
2023-02-04T15:41:05.515Z,7.42
2023-02-04T15:43:33.171Z,7.37
2023-02-04T15:46:00.917Z,7.31
2023-02-04T15:50:04.003Z,7.30
2023-02-04T16:04:09.723Z,7.00
2023-02-04T16:14:54.179Z,6.89
2023-02-04T16:28:34.951Z,6.66
2023-02-04T16:36:29.335Z,6.90
2023-02-04T16:43:06.106Z,6.62
2023-02-04T16:46:53.785Z,6.62
2023-02-04T17:15:07.836Z,6.35
2023-02-04T17:24:13.604Z,6.49
2023-02-04T17:26:41.257Z,6.36
2023-02-04T17:29:10.670Z,6.57
2023-02-04T17:31:38.898Z,6.33
2023-02-04T17:34:06.965Z,6.34
2023-02-04T17:36:34.584Z,6.38
2023-02-04T17:39:02.390Z,6.24
2023-02-04T17:41:31.465Z,6.31
2023-02-04T17:44:00.002Z,6.32
2023-02-04T17:46:27.793Z,6.25
2023-02-04T17:48:55.460Z,6.40
2023-02-04T17:51:23.134Z,6.31
2023-02-04T17:53:50.658Z,6.07
2023-02-04T17:56:18.438Z,6.20
2023-02-04T17:58:47.330Z,6.21
2023-02-04T18:01:16.942Z,6.17
2023-02-04T18:03:46.201Z,6.06
2023-02-04T18:06:19.924Z,6.11
2023-02-04T18:08:48.215Z,6.00
2023-02-04T18:11:19.187Z,5.94
2023-02-04T18:13:49.421Z,6.11
2023-02-04T18:16:24.288Z,6.26
2023-02-04T18:18:54.380Z,5.79
2023-02-04T18:21:23.963Z,5.91
2023-02-04T18:24:01.402Z,5.95
2023-02-04T18:26:29.392Z,5.71
2023-02-04T18:29:00.016Z,5.99
2023-02-04T18:31:34.758Z,5.75
2023-02-04T18:34:03.068Z,5.76
2023-02-04T18:36:33.501Z,5.90
2023-02-04T18:39:02.552Z,5.71
2023-02-04T18:41:33.944Z,5.89
2023-02-04T18:44:18.553Z,5.96
2023-02-04T18:46:48.726Z,5.81
2023-02-04T18:49:21.835Z,5.87
2023-02-04T18:51:49.830Z,5.72
2023-02-04T18:54:30.958Z,5.77
2023-02-04T18:57:17.452Z,5.74
2023-02-04T18:59:46.512Z,5.69
2023-02-04T19:02:30.415Z,5.72
2023-02-04T19:05:12.858Z,5.71
2023-02-04T19:07:41.322Z,5.76
2023-02-04T19:10:26.967Z,5.73
2023-02-04T19:12:54.815Z,5.38
2023-02-04T19:15:36.098Z,5.54
2023-02-04T19:18:16.789Z,5.11
2023-02-04T19:20:44.499Z,5.32
2023-02-04T19:23:15.710Z,5.68
2023-02-04T19:25:47.144Z,5.53
2023-02-04T19:28:28.548Z,5.51
2023-02-04T19:31:04.700Z,5.60
2023-02-04T19:33:34.738Z,5.24
2023-02-04T19:36:16.228Z,5.04
2023-02-04T19:38:46.229Z,5.26
2023-02-04T19:41:27.719Z,5.28
2023-02-04T19:44:19.855Z,5.45
2023-02-04T19:46:48.812Z,5.29
2023-02-04T19:49:21.572Z,5.13
2023-02-04T19:51:53.087Z,5.12
2023-02-04T19:54:24.142Z,5.24
2023-02-04T19:56:52.408Z,5.05
2023-02-04T19:59:26.350Z,5.13
2023-02-04T20:02:01.028Z,4.92
2023-02-04T20:04:35.856Z,4.92
2023-02-04T20:07:03.599Z,5.07
2023-02-04T20:09:33.938Z,4.81
2023-02-04T20:12:05.820Z,4.95
2023-02-04T20:14:47.774Z,4.78
2023-02-04T20:17:37.555Z,4.86
2023-02-04T20:20:30.413Z,4.69
2023-02-04T20:22:59.193Z,4.60
2023-02-04T20:25:43.759Z,4.99
2023-02-04T20:28:17.446Z,4.79
2023-02-04T20:30:45.672Z,4.94
2023-02-04T20:33:25.576Z,4.72
2023-02-04T20:36:44.476Z,4.52
2023-02-04T20:39:39.843Z,4.54
2023-02-04T20:42:35.988Z,4.61
2023-02-04T20:45:12.999Z,4.49
2023-02-04T20:47:40.695Z,4.65
2023-02-04T20:50:41.552Z,4.53
2023-02-04T20:53:23.123Z,4.71
2023-02-04T20:55:53.277Z,4.60
2023-02-04T20:58:22.778Z,4.61
2023-02-04T21:00:53.757Z,4.52
2023-02-04T21:03:30.081Z,4.27
2023-02-04T21:06:00.475Z,4.38
2023-02-04T21:08:30.968Z,4.37
2023-02-04T21:10:58.909Z,4.11
2023-02-04T21:13:26.790Z,4.13
2023-02-04T21:15:54.618Z,4.13
2023-02-04T21:18:22.661Z,4.00
2023-02-04T21:20:50.244Z,3.95
2023-02-04T21:23:19.454Z,4.02
2023-02-04T21:25:47.254Z,4.07
2023-02-04T21:28:15.661Z,4.03
2023-02-04T21:30:43.632Z,4.10
2023-02-04T21:33:11.681Z,4.08
2023-02-04T21:35:39.577Z,4.06
2023-02-04T21:38:07.659Z,4.06
2023-02-04T21:40:38.230Z,4.01
2023-02-04T21:43:08.149Z,4.00
2023-02-04T21:45:36.672Z,3.81
2023-02-04T21:48:06.177Z,4.03
2023-02-04T21:50:34.292Z,4.01
2023-02-04T21:53:01.897Z,3.87
2023-02-04T21:55:30.069Z,4.08
2023-02-04T21:57:59.100Z,4.08
2023-02-04T22:00:27.459Z,3.98
2023-02-04T22:02:55.208Z,4.06
2023-02-04T22:05:23.314Z,4.04
2023-02-04T22:07:51.472Z,3.90
2023-02-04T22:10:21.519Z,3.74
2023-02-04T22:12:49.466Z,3.77
2023-02-04T22:15:21.114Z,3.72
2023-02-04T22:17:49.248Z,3.55
2023-02-04T22:20:17.202Z,3.62
2023-02-04T22:22:45.429Z,3.51
2023-02-04T22:25:13.827Z,3.64
2023-02-04T22:27:41.555Z,3.46
2023-02-04T22:30:11.031Z,3.41
2023-02-04T22:32:40.317Z,3.54
2023-02-04T22:35:10.003Z,3.41
2023-02-04T22:37:37.912Z,3.53
2023-02-04T22:40:06.701Z,3.38
2023-02-04T22:42:34.589Z,3.59
2023-02-04T22:45:02.536Z,3.43
2023-02-04T22:47:30.375Z,3.42
2023-02-04T22:49:59.324Z,3.04
2023-02-04T22:52:27.262Z,3.38
2023-02-04T22:54:54.853Z,3.16
2023-02-04T22:57:22.592Z,3.24
2023-02-04T22:59:50.419Z,3.21
2023-02-04T23:02:18.234Z,3.26
2023-02-04T23:04:45.866Z,3.05
2023-02-04T23:07:15.031Z,3.18
2023-02-04T23:09:42.704Z,3.19
2023-02-04T23:12:16.426Z,3.15
2023-02-04T23:14:45.632Z,3.17
2023-02-04T23:17:13.881Z,3.09
2023-02-04T23:19:41.851Z,3.08
2023-02-04T23:22:10.479Z,3.17
2023-02-04T23:24:40.136Z,3.13
2023-02-04T23:27:09.248Z,2.94
2023-02-04T23:29:36.982Z,2.96
2023-02-04T23:32:05.301Z,2.70
2023-02-04T23:34:33.478Z,2.92
2023-02-04T23:37:01.411Z,2.96
2023-02-04T23:39:29.114Z,2.89
2023-02-04T23:41:58.053Z,2.67
2023-02-04T23:44:25.905Z,2.97
2023-02-04T23:46:53.546Z,2.90
2023-02-04T23:49:21.437Z,2.92
2023-02-04T23:51:49.023Z,2.90
2023-02-04T23:54:16.643Z,2.71
2023-02-04T23:56:44.321Z,2.86
2023-02-04T23:59:13.451Z,2.90
